createdAt,value
2022-08-30T00:02:10.584Z,99.90
2022-08-30T00:04:37.287Z,1.00
2022-08-30T00:07:04.002Z,1.00
2022-08-30T00:09:32.475Z,99.90
2022-08-30T00:11:59.477Z,1.00
2022-08-30T00:14:27.419Z,99.90
2022-08-30T00:16:54.160Z,99.90
2022-08-30T00:19:20.819Z,1.00
2022-08-30T00:21:47.549Z,99.90
2022-08-30T00:24:14.275Z,1.00
2022-08-30T00:26:41.115Z,1.00
2022-08-30T00:29:07.729Z,51.00
2022-08-30T00:31:34.502Z,99.90
2022-08-30T00:34:01.243Z,99.90
2022-08-30T00:36:27.902Z,1.00
2022-08-30T00:38:54.529Z,99.90
2022-08-30T00:41:22.637Z,1.00
2022-08-30T00:43:49.267Z,1.20
2022-08-30T00:46:16.001Z,99.90
2022-08-30T00:48:47.876Z,99.90
2022-08-30T00:51:15.618Z,1.00
2022-08-30T00:53:46.733Z,1.00
2022-08-30T00:56:13.890Z,99.90
2022-08-30T00:58:45.368Z,99.90
2022-08-30T01:01:12.810Z,1.00
2022-08-30T01:03:40.175Z,99.90
2022-08-30T01:06:07.758Z,99.90
2022-08-30T01:08:35.173Z,1.00
2022-08-30T01:11:03.862Z,99.90
2022-08-30T01:13:31.428Z,99.90
2022-08-30T01:16:00.074Z,99.90
2022-08-30T01:18:27.515Z,99.90
2022-08-30T01:21:24.541Z,99.90
2022-08-30T01:23:53.970Z,1.00
2022-08-30T01:26:21.935Z,82.20
2022-08-30T01:28:53.162Z,1.00
2022-08-30T01:31:20.332Z,99.90
2022-08-30T01:33:47.079Z,99.90
2022-08-30T01:36:14.671Z,1.00
2022-08-30T01:38:51.450Z,1.00
2022-08-30T01:41:25.269Z,99.90
2022-08-30T01:43:54.867Z,1.00
2022-08-30T01:46:24.430Z,1.00
2022-08-30T01:48:54.247Z,27.10
2022-08-30T01:51:22.765Z,1.00
2022-08-30T01:53:49.540Z,1.00
2022-08-30T01:56:17.175Z,1.00
2022-08-30T01:58:44.872Z,1.00
2022-08-30T02:01:16.870Z,99.90
2022-08-30T02:03:44.754Z,1.00
2022-08-30T02:06:14.937Z,1.00
2022-08-30T02:09:22.302Z,89.20
2022-08-30T02:11:49.041Z,1.00
2022-08-30T02:14:15.706Z,99.90
2022-08-30T02:16:42.459Z,99.90
2022-08-30T02:19:09.195Z,90.50
2022-08-30T02:21:39.707Z,99.90
2022-08-30T02:24:06.555Z,99.90
2022-08-30T02:26:36.269Z,1.00
2022-08-30T02:29:05.271Z,99.90
2022-08-30T02:31:34.454Z,66.60
2022-08-30T02:34:01.438Z,85.20
2022-08-30T02:36:28.066Z,1.00
2022-08-30T02:38:54.967Z,1.00
2022-08-30T02:41:23.617Z,1.00
2022-08-30T02:43:51.461Z,1.00
2022-08-30T02:46:18.454Z,1.00
2022-08-30T02:48:45.280Z,99.90
2022-08-30T02:51:13.531Z,99.90
2022-08-30T02:53:42.348Z,99.90
2022-08-30T02:56:09.592Z,1.00
2022-08-30T02:58:37.245Z,1.00
2022-08-30T03:01:05.654Z,99.90
2022-08-30T03:03:32.463Z,99.90
2022-08-30T03:05:59.207Z,1.00
2022-08-30T03:08:25.879Z,99.90
2022-08-30T03:10:52.626Z,1.00
2022-08-30T03:13:19.373Z,99.90
2022-08-30T03:15:46.057Z,98.40
2022-08-30T03:18:12.678Z,1.00
2022-08-30T03:20:41.383Z,99.90
2022-08-30T03:23:10.711Z,66.90
2022-08-30T03:25:48.384Z,1.00
2022-08-30T03:28:15.131Z,99.90
2022-08-30T03:30:41.761Z,99.90
2022-08-30T03:33:08.386Z,99.90
2022-08-30T03:35:38.094Z,99.90
2022-08-30T03:38:05.775Z,99.90
2022-08-30T03:40:32.574Z,62.80
2022-08-30T03:42:59.235Z,99.90
2022-08-30T03:45:26.502Z,99.90
2022-08-30T03:47:53.237Z,99.90
2022-08-30T03:50:19.873Z,99.90
2022-08-30T03:52:46.490Z,99.90
2022-08-30T03:55:13.342Z,99.90
2022-08-30T03:57:43.448Z,99.90
2022-08-30T04:00:11.903Z,99.90
2022-08-30T04:02:39.568Z,99.90
2022-08-30T04:05:06.902Z,99.90
2022-08-30T04:07:33.660Z,52.00
2022-08-30T04:10:00.793Z,75.60
2022-08-30T04:12:27.631Z,99.90
2022-08-30T04:14:54.407Z,99.90
2022-08-30T04:17:21.069Z,99.90
2022-08-30T04:19:47.789Z,99.90
2022-08-30T04:22:14.455Z,99.90
2022-08-30T04:24:41.605Z,99.90
2022-08-30T04:27:09.145Z,99.90
2022-08-30T04:29:35.950Z,99.90
2022-08-30T04:32:02.905Z,99.90
2022-08-30T04:34:29.571Z,99.90
2022-08-30T04:36:56.230Z,99.90
2022-08-30T04:39:23.797Z,99.90
2022-08-30T04:41:50.494Z,99.90
2022-08-30T04:44:19.401Z,1.00
2022-08-30T04:46:46.677Z,99.90
2022-08-30T04:49:13.491Z,99.90
2022-08-30T04:51:40.331Z,99.90
2022-08-30T04:54:06.991Z,99.90
2022-08-30T04:56:33.703Z,99.90
2022-08-30T04:59:00.723Z,1.00
2022-08-30T05:01:30.098Z,99.90
2022-08-30T05:03:57.994Z,99.90
2022-08-30T05:06:27.414Z,1.00
2022-08-30T05:08:54.716Z,99.90
2022-08-30T05:11:21.918Z,99.90
2022-08-30T05:13:49.717Z,99.90
2022-08-30T05:16:18.094Z,99.90
2022-08-30T05:18:46.096Z,99.90
2022-08-30T05:21:17.340Z,99.90
2022-08-30T05:23:44.551Z,99.90
2022-08-30T05:26:18.250Z,1.00
2022-08-30T05:28:45.505Z,1.00
2022-08-30T05:31:23.860Z,1.00
2022-08-30T05:33:52.615Z,99.90
2022-08-30T05:36:21.613Z,99.90
2022-08-30T05:38:48.531Z,99.90
2022-08-30T05:41:16.065Z,1.00
2022-08-30T05:43:42.665Z,99.90
2022-08-30T05:46:12.270Z,21.40
2022-08-30T05:48:41.186Z,1.00
2022-08-30T05:51:13.972Z,1.00
2022-08-30T05:53:41.386Z,1.00
2022-08-30T05:56:11.898Z,1.00
2022-08-30T05:58:39.543Z,99.90
2022-08-30T06:01:06.702Z,99.90
2022-08-30T06:03:33.509Z,1.00
2022-08-30T06:06:01.233Z,99.90
2022-08-30T06:08:28.000Z,1.00
2022-08-30T06:10:55.227Z,99.90
2022-08-30T06:13:22.361Z,1.00
2022-08-30T06:15:49.620Z,99.90
2022-08-30T06:18:16.586Z,1.00
2022-08-30T06:20:47.453Z,98.60
2022-08-30T06:23:17.919Z,99.90
2022-08-30T06:25:45.013Z,60.60
2022-08-30T06:28:13.925Z,99.90
2022-08-30T06:30:41.802Z,1.00
2022-08-30T06:33:09.781Z,99.90
2022-08-30T06:35:46.738Z,1.00
2022-08-30T06:38:19.086Z,1.00
2022-08-30T06:40:45.798Z,99.90
2022-08-30T06:43:12.461Z,99.90
2022-08-30T06:45:39.082Z,99.90
2022-08-30T06:48:05.812Z,99.90
2022-08-30T06:50:32.529Z,99.90
2022-08-30T06:53:05.566Z,99.90
2022-08-30T06:55:33.409Z,99.90
2022-08-30T06:58:04.138Z,99.90
2022-08-30T07:00:31.045Z,99.90
2022-08-30T07:02:58.453Z,99.90
2022-08-30T07:05:25.200Z,99.90
2022-08-30T07:07:55.639Z,93.40
2022-08-30T07:10:22.535Z,88.40
2022-08-30T07:12:49.412Z,60.50
2022-08-30T07:15:16.174Z,50.00
2022-08-30T07:18:02.116Z,44.50
2022-08-30T07:20:40.397Z,41.50
2022-08-30T07:23:08.167Z,44.80
2022-08-30T07:25:36.993Z,37.40
2022-08-30T07:28:05.476Z,28.80
2022-08-30T07:30:32.837Z,27.70
2022-08-30T07:32:59.606Z,14.60
2022-08-30T07:35:27.008Z,14.10
2022-08-30T07:37:54.757Z,16.70
2022-08-30T07:40:21.725Z,22.40
2022-08-30T07:42:48.429Z,22.40
2022-08-30T07:45:15.295Z,21.00
2022-08-30T07:47:42.227Z,27.50
2022-08-30T07:50:09.087Z,17.70
2022-08-30T07:52:35.805Z,12.60
2022-08-30T07:55:03.140Z,11.70
2022-08-30T07:57:33.755Z,6.60
2022-08-30T08:00:01.359Z,8.90
2022-08-30T08:02:28.292Z,8.20
2022-08-30T08:04:55.067Z,5.10
2022-08-30T08:07:21.753Z,3.90
2022-08-30T08:09:48.410Z,1.80
2022-08-30T08:12:15.084Z,1.00
2022-08-30T08:14:42.028Z,1.00
2022-08-30T08:17:09.233Z,1.00
2022-08-30T08:19:35.879Z,1.00
2022-08-30T08:22:20.513Z,1.00
2022-08-30T08:24:48.868Z,1.00
2022-08-30T08:27:15.577Z,1.00
2022-08-30T08:29:42.327Z,1.00
2022-08-30T08:32:08.953Z,1.00
2022-08-30T08:34:36.326Z,1.00
2022-08-30T08:37:03.013Z,1.00
2022-08-30T08:39:29.731Z,1.00
2022-08-30T08:42:10.871Z,1.00
2022-08-30T08:44:45.119Z,1.00
2022-08-30T08:47:21.848Z,1.00
2022-08-30T08:49:55.457Z,1.00
2022-08-30T08:52:49.689Z,1.00
2022-08-30T08:55:20.271Z,1.00
2022-08-30T08:57:47.817Z,1.00
2022-08-30T09:00:15.223Z,1.00
2022-08-30T09:02:50.625Z,1.00
2022-08-30T09:05:21.935Z,1.00
2022-08-30T09:07:53.736Z,1.00
2022-08-30T09:10:40.420Z,1.00
2022-08-30T09:13:08.769Z,1.00
2022-08-30T09:15:40.255Z,1.00
2022-08-30T09:18:16.901Z,1.00
2022-08-30T09:20:49.310Z,1.00
2022-08-30T09:23:15.900Z,1.00
2022-08-30T09:26:05.927Z,1.00
2022-08-30T09:28:49.434Z,1.00
2022-08-30T09:31:42.379Z,1.00
2022-08-30T09:34:17.362Z,1.00
2022-08-30T09:36:49.778Z,1.00
2022-08-30T09:39:32.658Z,1.00
2022-08-30T09:42:23.763Z,1.00
2022-08-30T09:44:50.476Z,1.00
2022-08-30T09:47:29.618Z,1.00
2022-08-30T09:50:04.401Z,1.00
2022-08-30T09:53:01.045Z,1.00
2022-08-30T09:56:06.121Z,1.00
2022-08-30T09:58:48.900Z,1.00
2022-08-30T10:01:26.293Z,1.00
2022-08-30T10:04:19.835Z,1.00
2022-08-30T10:06:54.099Z,1.00
2022-08-30T10:10:01.659Z,1.00
2022-08-30T10:12:38.098Z,1.00
2022-08-30T10:15:19.000Z,1.00
2022-08-30T10:18:06.803Z,1.00
2022-08-30T10:20:39.371Z,1.00
2022-08-30T10:23:40.842Z,1.00
2022-08-30T10:26:10.218Z,1.00
2022-08-30T10:29:16.191Z,1.00
2022-08-30T10:32:00.477Z,1.00
2022-08-30T10:34:31.351Z,1.00
2022-08-30T10:37:17.698Z,1.00
2022-08-30T10:39:56.385Z,1.00
2022-08-30T10:42:28.626Z,1.00
2022-08-30T10:45:03.311Z,1.00
2022-08-30T10:47:41.926Z,1.00
2022-08-30T10:50:21.284Z,1.00
2022-08-30T10:52:57.925Z,1.00
2022-08-30T10:55:28.947Z,1.00
2022-08-30T10:58:03.594Z,1.00
2022-08-30T11:00:45.532Z,1.00
2022-08-30T11:03:37.127Z,1.00
2022-08-30T11:06:19.678Z,1.00
2022-08-30T11:09:05.137Z,1.00
2022-08-30T11:11:52.958Z,1.00
2022-08-30T11:14:20.834Z,1.00
2022-08-30T11:16:54.812Z,1.00
2022-08-30T11:19:26.589Z,1.00
2022-08-30T11:22:13.376Z,1.00
2022-08-30T11:25:26.283Z,1.00
2022-08-30T11:27:58.786Z,1.00
2022-08-30T11:30:26.657Z,1.00
2022-08-30T11:32:59.429Z,1.00
2022-08-30T11:35:49.930Z,1.00
2022-08-30T11:38:25.767Z,1.00
2022-08-30T11:40:55.366Z,1.00
2022-08-30T11:43:40.235Z,1.00
2022-08-30T11:46:14.773Z,1.00
2022-08-30T11:48:53.699Z,1.00
2022-08-30T11:51:36.526Z,1.00
2022-08-30T11:54:19.060Z,1.00
2022-08-30T11:56:56.434Z,1.00
2022-08-30T11:59:46.716Z,1.00
2022-08-30T12:02:42.186Z,1.00
2022-08-30T12:05:29.319Z,1.00
2022-08-30T12:08:00.572Z,1.00
2022-08-30T12:10:39.758Z,1.00
2022-08-30T12:13:07.513Z,1.00
2022-08-30T12:16:12.798Z,1.00
2022-08-30T12:18:59.987Z,1.00
2022-08-30T12:21:43.951Z,1.00
2022-08-30T12:24:36.579Z,1.00
2022-08-30T12:27:32.519Z,1.00
2022-08-30T12:30:05.805Z,1.00
2022-08-30T12:32:33.336Z,1.00
2022-08-30T12:35:03.866Z,1.00
2022-08-30T12:37:42.184Z,1.00
2022-08-30T12:40:18.035Z,1.00
2022-08-30T12:42:52.409Z,1.00
2022-08-30T12:45:22.132Z,1.00
2022-08-30T12:47:57.095Z,1.00
2022-08-30T12:50:36.813Z,1.00
2022-08-30T12:53:09.313Z,1.00
2022-08-30T12:56:13.096Z,1.00
2022-08-30T12:58:48.482Z,1.00
2022-08-30T13:01:29.218Z,1.00
2022-08-30T13:04:02.548Z,1.00
2022-08-30T13:06:58.292Z,1.00
2022-08-30T13:09:40.625Z,1.00
2022-08-30T13:12:20.750Z,1.00
2022-08-30T13:14:49.855Z,1.00
2022-08-30T13:17:19.050Z,1.00
2022-08-30T13:20:07.006Z,1.00
2022-08-30T13:22:39.149Z,1.00
2022-08-30T13:25:07.697Z,1.00
2022-08-30T13:27:37.102Z,1.00
2022-08-30T13:30:13.750Z,1.00
2022-08-30T13:32:42.043Z,1.00
2022-08-30T13:35:09.703Z,1.00
2022-08-30T13:37:49.799Z,1.00
2022-08-30T13:40:20.030Z,1.00
2022-08-30T13:42:47.240Z,1.00
2022-08-30T13:48:03.319Z,1.00
2022-08-30T13:50:31.000Z,1.00
2022-08-30T13:52:58.141Z,1.00
2022-08-30T13:55:25.140Z,1.00
2022-08-30T13:57:54.186Z,1.00
2022-08-30T14:00:22.269Z,1.00
2022-08-30T14:02:54.790Z,1.00
2022-08-30T14:05:48.172Z,1.00
2022-08-30T14:11:07.078Z,1.00
2022-08-30T14:13:34.018Z,1.00
2022-08-30T14:18:51.123Z,1.00
2022-08-30T14:21:21.387Z,1.00
2022-08-30T14:23:56.051Z,1.00
2022-08-30T14:26:35.824Z,1.00
2022-08-30T14:29:08.933Z,1.00
2022-08-30T14:31:37.453Z,1.00
2022-08-30T14:34:05.450Z,1.00
2022-08-30T14:36:33.111Z,1.00
2022-08-30T14:39:00.583Z,1.00
2022-08-30T14:41:27.482Z,1.00
2022-08-30T14:43:54.145Z,1.00
2022-08-30T14:46:22.004Z,1.00
2022-08-30T14:48:48.942Z,1.00
2022-08-30T14:51:19.475Z,1.00
2022-08-30T14:53:47.515Z,1.00
2022-08-30T14:56:19.416Z,1.00
2022-08-30T14:58:49.806Z,1.00
2022-08-30T15:01:16.707Z,1.00
2022-08-30T15:03:44.069Z,1.00
2022-08-30T15:06:11.664Z,1.00
2022-08-30T15:08:39.275Z,1.00
2022-08-30T15:11:14.927Z,1.00
2022-08-30T15:13:44.636Z,1.00
2022-08-30T15:16:27.556Z,1.00
2022-08-30T15:18:55.149Z,1.00
2022-08-30T15:21:30.740Z,1.00
2022-08-30T15:23:58.910Z,1.00
2022-08-30T15:26:25.594Z,1.00
2022-08-30T15:28:54.517Z,1.00
2022-08-30T15:31:24.339Z,1.00
2022-08-30T15:33:51.119Z,1.00
2022-08-30T15:36:17.795Z,1.00
2022-08-30T15:38:44.828Z,1.00
2022-08-30T15:41:13.099Z,1.00
2022-08-30T15:43:41.214Z,1.00
2022-08-30T15:46:30.735Z,1.00
2022-08-30T15:49:09.004Z,1.00
2022-08-30T15:51:41.540Z,1.00
2022-08-30T15:54:11.642Z,1.00
2022-08-30T15:56:39.177Z,1.00
2022-08-30T15:59:06.029Z,1.00
2022-08-30T16:01:33.756Z,1.00
2022-08-30T16:04:01.153Z,1.00
2022-08-30T16:06:30.938Z,1.00
2022-08-30T16:08:58.834Z,1.00
2022-08-30T16:11:26.067Z,1.00
2022-08-30T16:13:54.568Z,1.00
2022-08-30T16:16:22.366Z,1.00
2022-08-30T16:18:53.798Z,1.00
2022-08-30T16:21:27.682Z,1.00
2022-08-30T16:23:56.645Z,1.00
2022-08-30T16:26:24.306Z,1.00
2022-08-30T16:28:51.888Z,1.00
2022-08-30T16:31:20.972Z,1.00
2022-08-30T16:33:52.421Z,1.00
2022-08-30T16:36:21.314Z,1.00
2022-08-30T16:38:49.579Z,1.00
2022-08-30T16:41:22.186Z,1.00
2022-08-30T16:43:50.227Z,1.00
2022-08-30T16:46:26.910Z,1.00
2022-08-30T16:48:59.139Z,1.00
2022-08-30T16:51:27.549Z,1.00
2022-08-30T16:53:56.237Z,1.00
2022-08-30T16:56:26.564Z,1.00
2022-08-30T16:59:01.138Z,1.00
2022-08-30T17:01:30.855Z,1.00
2022-08-30T17:03:57.540Z,1.00
2022-08-30T17:06:24.274Z,1.00
2022-08-30T17:08:54.107Z,1.00
2022-08-30T17:11:23.484Z,1.00
2022-08-30T17:13:50.817Z,1.00
2022-08-30T17:19:07.132Z,1.00
2022-08-30T17:21:34.129Z,1.00
2022-08-30T17:24:02.446Z,1.00
2022-08-30T17:26:35.864Z,1.00
2022-08-30T17:29:04.125Z,1.00
2022-08-30T17:31:31.375Z,1.00
2022-08-30T17:34:04.037Z,1.00
2022-08-30T17:36:35.453Z,1.00
2022-08-30T17:39:11.450Z,1.00
2022-08-30T17:41:43.342Z,1.00
2022-08-30T17:44:15.999Z,1.00
2022-08-30T17:46:43.156Z,1.00
2022-08-30T17:49:10.560Z,1.00
2022-08-30T17:51:40.847Z,1.00
2022-08-30T17:54:08.778Z,1.00
2022-08-30T17:56:35.870Z,1.00
2022-08-30T17:59:05.380Z,1.00
2022-08-30T18:01:32.267Z,1.00
2022-08-30T18:04:01.734Z,1.00
2022-08-30T18:06:29.254Z,1.00
2022-08-30T18:08:55.985Z,1.00
2022-08-30T18:11:22.830Z,1.00
2022-08-30T18:13:51.387Z,1.00
2022-08-30T18:16:21.450Z,1.00
2022-08-30T18:18:50.730Z,1.00
2022-08-30T18:21:22.108Z,1.00
2022-08-30T18:23:50.686Z,1.00
2022-08-30T18:26:17.946Z,1.00
2022-08-30T18:28:44.707Z,1.00
2022-08-30T18:31:11.558Z,1.00
2022-08-30T18:33:39.358Z,1.00
2022-08-30T18:36:06.986Z,1.00
2022-08-30T18:38:34.050Z,1.00
2022-08-30T18:41:04.504Z,1.00
2022-08-30T18:43:31.270Z,1.00
2022-08-30T18:46:03.375Z,1.00
2022-08-30T18:48:30.209Z,1.00
2022-08-30T18:50:57.122Z,1.00
2022-08-30T18:53:28.315Z,1.00
2022-08-30T18:55:56.450Z,1.00
2022-08-30T18:58:23.201Z,1.00
2022-08-30T19:00:49.870Z,1.00
2022-08-30T19:03:18.255Z,1.00
2022-08-30T19:05:45.766Z,1.00
2022-08-30T19:08:13.379Z,1.00
2022-08-30T19:10:40.180Z,1.00
2022-08-30T19:13:06.875Z,1.00
2022-08-30T19:15:35.082Z,1.00
2022-08-30T19:18:02.986Z,1.00
2022-08-30T19:20:45.816Z,1.00
2022-08-30T19:23:14.284Z,1.00
2022-08-30T19:25:42.326Z,1.00
2022-08-30T19:28:09.704Z,1.00
2022-08-30T19:30:39.766Z,1.00
2022-08-30T19:33:06.603Z,1.00
2022-08-30T19:35:38.184Z,1.00
2022-08-30T19:38:04.923Z,1.00
2022-08-30T19:40:31.627Z,1.00
2022-08-30T19:42:58.929Z,1.00
2022-08-30T19:45:25.890Z,1.00
2022-08-30T19:47:53.719Z,1.00
2022-08-30T19:50:21.662Z,1.00
2022-08-30T19:52:54.244Z,1.00
2022-08-30T19:55:23.830Z,1.00
2022-08-30T19:57:55.806Z,1.00
2022-08-30T20:00:23.417Z,1.00
2022-08-30T20:02:50.616Z,1.00
2022-08-30T20:05:18.160Z,1.00
2022-08-30T20:07:45.016Z,1.00
2022-08-30T20:10:15.248Z,1.00
2022-08-30T20:12:47.540Z,1.00
2022-08-30T20:15:17.368Z,1.00
2022-08-30T20:18:03.211Z,1.00
2022-08-30T20:20:33.518Z,1.00
2022-08-30T20:23:03.183Z,1.00
2022-08-30T20:24:23.644Z,1.00
2022-08-30T20:25:30.862Z,1.00
2022-08-30T20:27:58.184Z,1.00
2022-08-30T20:30:24.834Z,1.00
2022-08-30T20:32:54.127Z,1.00
2022-08-30T20:35:21.041Z,1.00
2022-08-30T20:37:50.129Z,1.00
2022-08-30T20:40:17.414Z,1.00
2022-08-30T20:42:45.706Z,1.00
2022-08-30T20:45:15.955Z,1.00
2022-08-30T20:47:43.501Z,1.00
2022-08-30T20:50:15.745Z,1.00
2022-08-30T20:52:43.037Z,1.00
2022-08-30T20:55:11.647Z,1.00
2022-08-30T20:57:39.142Z,12.80
2022-08-30T21:00:11.692Z,7.00
2022-08-30T21:02:42.729Z,18.10
2022-08-30T21:05:15.353Z,29.90
2022-08-30T21:07:43.511Z,14.30
2022-08-30T21:10:11.232Z,22.70
2022-08-30T21:12:37.962Z,38.80
2022-08-30T21:15:27.002Z,30.00
2022-08-30T21:17:54.890Z,46.60
2022-08-30T21:20:21.545Z,66.00
2022-08-30T21:22:48.251Z,75.90
2022-08-30T21:25:14.899Z,99.90
2022-08-30T21:27:43.585Z,99.90
2022-08-30T21:30:13.106Z,99.90
2022-08-30T21:32:40.593Z,99.90
2022-08-30T21:35:27.871Z,99.90
2022-08-30T21:37:55.350Z,99.90
2022-08-30T21:40:22.307Z,99.90
2022-08-30T21:42:49.147Z,99.90
2022-08-30T21:45:16.013Z,99.90
2022-08-30T21:47:42.687Z,99.90
2022-08-30T21:50:09.858Z,99.90
2022-08-30T21:52:36.597Z,99.90
2022-08-30T21:55:03.991Z,99.90
2022-08-30T21:57:31.200Z,99.90
2022-08-30T21:59:57.855Z,99.90
2022-08-30T22:02:24.591Z,99.90
2022-08-30T22:04:51.240Z,99.90
2022-08-30T22:07:17.953Z,99.90
2022-08-30T22:09:44.628Z,99.90
2022-08-30T22:12:11.495Z,99.90
2022-08-30T22:14:38.160Z,99.90
2022-08-30T22:17:05.514Z,99.90
2022-08-30T22:19:33.831Z,99.90
2022-08-30T22:22:01.726Z,99.90
2022-08-30T22:24:32.418Z,1.00
2022-08-30T22:27:00.227Z,1.00
2022-08-30T22:29:26.876Z,1.00
2022-08-30T22:31:54.327Z,1.00
2022-08-30T22:34:21.087Z,99.90
2022-08-30T22:36:47.735Z,99.90
2022-08-30T22:39:14.485Z,99.90
2022-08-30T22:41:42.862Z,99.90
2022-08-30T22:44:10.255Z,99.90
2022-08-30T22:46:37.670Z,99.90
2022-08-30T22:49:06.784Z,99.90
2022-08-30T22:51:33.926Z,99.90
2022-08-30T22:54:01.208Z,99.90
2022-08-30T22:56:28.564Z,99.90
2022-08-30T22:58:55.967Z,99.90
2022-08-30T23:01:24.638Z,99.90
2022-08-30T23:03:52.633Z,1.00
2022-08-30T23:06:19.460Z,99.90
2022-08-30T23:08:46.791Z,99.90
2022-08-30T23:11:14.172Z,99.90
2022-08-30T23:13:41.574Z,99.90
2022-08-30T23:16:09.273Z,1.00
2022-08-30T23:18:38.937Z,99.90
2022-08-30T23:21:15.201Z,1.00
2022-08-30T23:24:00.925Z,1.00
2022-08-30T23:26:46.302Z,99.90
2022-08-30T23:29:31.769Z,99.90
2022-08-30T23:32:18.329Z,99.90
2022-08-30T23:35:03.744Z,99.90
2022-08-30T23:37:53.245Z,1.00
2022-08-30T23:40:39.563Z,99.90
2022-08-30T23:43:25.965Z,1.00
2022-08-30T23:46:11.501Z,1.00
2022-08-30T23:49:05.318Z,99.90
2022-08-30T23:51:50.874Z,36.90
2022-08-30T23:54:36.378Z,99.90
2022-08-30T23:57:24.059Z,99.90
